Time;durP1;ratioP1;P1;durP2;ratioP2;P2;SDS_P1;SDS_P2;PMS_P1;PMS_P2;Temp;Humidity;BMP_temperature;BMP_pressure;BME280_temperature;BME280_humidity;BME280_pressure;Samples;Min_cycle;Max_cycle;Signal;HPM_P1;HPM_P2
2022/11/30 00:01:20;;;;;;;71.63;47.03;;;;;;;10.30;61.62;102001.81;4985619;28;119779;-75
2022/11/30 00:03:46;;;;;;;70.85;47.95;;;;;;;10.32;61.58;102013.13;4986438;28;119877;-74
2022/11/30 00:06:14;;;;;;;73.85;47.83;;;;;;;10.27;61.36;102005.38;4987106;28;119706;-76
2022/11/30 00:09:00;;;;;;;72.68;47.40;;;;;;;10.16;61.56;102004.72;4977763;28;120385;-76
2022/11/30 00:11:27;;;;;;;75.97;48.88;;;;;;;10.19;61.74;101998.44;4991010;28;119298;-78
2022/11/30 00:13:53;;;;;;;73.78;48.08;;;;;;;10.21;61.63;102000.78;4994671;28;120418;-79
2022/11/30 00:16:19;;;;;;;72.97;48.55;;;;;;;10.20;61.47;102005.47;4992719;28;119901;-78
2022/11/30 00:18:44;;;;;;;75.72;47.60;;;;;;;10.22;61.62;102003.13;4993192;28;120095;-78
2022/11/30 00:21:12;;;;;;;77.70;49.35;;;;;;;10.25;61.84;102002.28;4992409;28;119343;-78
2022/11/30 00:23:40;;;;;;;71.00;46.63;;;;;;;10.26;61.64;102006.56;4990873;28;119962;-79
2022/11/30 00:26:09;;;;;;;72.30;47.10;;;;;;;10.25;61.86;102013.25;4992335;28;120422;-79
2022/11/30 00:28:36;;;;;;;76.13;48.95;;;;;;;10.23;61.17;101999.19;4992490;28;119858;-78
2022/11/30 00:31:04;;;;;;;71.03;47.60;;;;;;;10.21;61.42;102020.75;4988042;28;119395;-76
2022/11/30 00:33:35;;;;;;;73.88;47.22;;;;;;;10.18;61.16;102018.81;4990752;28;121206;-76
2022/11/30 00:36:04;;;;;;;72.45;46.90;;;;;;;10.13;61.31;102011.03;4987623;28;119999;-77
2022/11/30 00:38:30;;;;;;;78.63;48.25;;;;;;;10.17;61.27;102025.47;4988529;28;119286;-75
2022/11/30 00:40:56;;;;;;;77.03;47.97;;;;;;;10.11;60.53;102018.91;4990720;28;119627;-77
2022/11/30 00:43:22;;;;;;;73.97;48.45;;;;;;;10.14;61.48;102029.81;4971237;28;120704;-76
2022/11/30 00:45:48;;;;;;;72.65;47.65;;;;;;;10.08;61.12;102027.97;4989715;28;119400;-76
2022/11/30 00:48:14;;;;;;;71.95;46.00;;;;;;;10.08;61.19;102028.75;4989517;28;119763;-76
2022/11/30 00:50:39;;;;;;;69.03;46.40;;;;;;;10.08;61.10;102026.00;4988645;28;120217;-76
2022/11/30 00:53:05;;;;;;;72.20;46.60;;;;;;;10.09;61.22;102029.50;4989771;28;119258;-77
2022/11/30 00:55:32;;;;;;;76.72;48.40;;;;;;;10.13;60.86;102033.75;4994156;28;119802;-77
2022/11/30 00:57:58;;;;;;;73.55;46.97;;;;;;;10.09;60.83;102032.25;5006261;28;120717;-75
2022/11/30 01:00:27;;;;;;;71.07;45.25;;;;;;;10.16;60.70;102040.38;4994814;28;119841;-76
2022/11/30 01:02:53;;;;;;;70.88;46.35;;;;;;;10.16;60.58;102037.63;4989974;28;119733;-76
2022/11/30 01:05:19;;;;;;;71.03;46.25;;;;;;;10.15;60.56;102036.06;4985764;28;120139;-76
2022/11/30 01:07:45;;;;;;;72.82;46.45;;;;;;;10.15;61.17;102036.84;4988574;28;119339;-77
2022/11/30 01:10:11;;;;;;;70.78;45.60;;;;;;;10.15;60.84;102027.84;4989845;28;119810;-77
2022/11/30 01:12:36;;;;;;;69.25;44.95;;;;;;;10.13;60.98;102016.53;4989104;28;120026;-76
2022/11/30 01:15:02;;;;;;;67.00;44.33;;;;;;;10.17;60.58;102030.94;4988010;28;119668;-77
2022/11/30 01:17:28;;;;;;;66.03;44.67;;;;;;;10.18;60.97;102029.00;4972483;28;119944;-76
2022/11/30 01:19:54;;;;;;;67.38;44.70;;;;;;;10.25;60.71;102037.94;4987891;28;119363;-77
2022/11/30 01:22:20;;;;;;;74.65;46.58;;;;;;;10.25;60.93;102040.69;4988562;28;119366;-76
2022/11/30 01:24:45;;;;;;;66.82;43.53;;;;;;;10.25;60.52;102042.63;4988577;28;119980;-78
2022/11/30 01:27:11;;;;;;;65.70;42.50;;;;;;;10.23;59.79;102039.53;4990839;28;119307;-78
2022/11/30 01:29:37;;;;;;;64.72;42.92;;;;;;;10.15;60.00;102038.81;4992103;28;120041;-78
2022/11/30 01:32:03;;;;;;;65.05;43.47;;;;;;;10.08;60.56;102031.47;4991330;28;119333;-79
2022/11/30 01:34:28;;;;;;;68.78;44.40;;;;;;;10.14;60.37;102040.00;4990166;28;120089;-78
2022/11/30 01:36:54;;;;;;;70.68;45.92;;;;;;;10.15;60.36;102045.06;4987771;28;119415;-79
2022/11/30 01:39:20;;;;;;;68.28;44.97;;;;;;;10.15;60.22;102047.03;4994632;28;119738;-79
2022/11/30 01:41:46;;;;;;;70.63;46.88;;;;;;;10.16;59.94;102059.56;4992146;28;119754;-77
2022/11/30 01:44:14;;;;;;;71.05;45.10;;;;;;;10.16;59.97;102057.59;4969831;28;120384;-76
2022/11/30 01:46:51;;;;;;;73.30;46.17;;;;;;;10.19;60.09;102056.03;4988842;28;119379;-79
2022/11/30 01:49:26;;;;;;;70.95;44.97;;;;;;;10.11;59.93;102049.06;4986197;28;120589;-75
2022/11/30 01:52:01;;;;;;;69.35;45.65;;;;;;;10.18;60.15;102061.91;4986455;28;119433;-76
2022/11/30 01:54:40;;;;;;;74.85;46.13;;;;;;;10.15;59.70;102056.03;4987209;28;119486;-76
2022/11/30 01:57:21;;;;;;;69.65;43.80;;;;;;;10.13;60.23;102052.16;4986848;28;119710;-75
2022/11/30 01:59:50;;;;;;;69.60;45.85;;;;;;;10.11;59.96;102052.59;4987708;28;119916;-76
2022/11/30 02:02:29;;;;;;;70.00;45.47;;;;;;;10.10;60.06;102050.25;4992225;28;119287;-76
2022/11/30 02:04:55;;;;;;;71.00;45.15;;;;;;;10.07;59.80;102042.88;4985007;28;120212;-76
2022/11/30 02:07:21;;;;;;;74.38;47.55;;;;;;;10.09;60.55;102043.22;4987655;28;119750;-77
2022/11/30 02:09:46;;;;;;;69.90;44.65;;;;;;;10.08;60.88;102050.66;4987462;28;119855;-76
2022/11/30 02:13:07;;;;;;;70.72;45.65;;;;;;;10.04;60.55;102041.72;4987483;28;119541;-76
2022/11/30 02:16:07;;;;;;;74.43;46.65;;;;;;;10.05;61.00;102046.03;4971515;28;119477;-76
2022/11/30 02:19:00;;;;;;;82.25;50.35;;;;;;;10.08;61.18;102058.13;4954489;28;121833;-76
2022/11/30 02:21:48;;;;;;;79.37;49.73;;;;;;;10.06;61.08;102058.53;4969749;28;121999;-77
2022/11/30 02:24:32;;;;;;;82.90;50.22;;;;;;;10.06;61.23;102057.75;4969193;28;119709;-76
2022/11/30 02:27:19;;;;;;;82.28;52.63;;;;;;;10.05;61.58;102054.25;4990547;28;119754;-76
2022/11/30 02:29:51;;;;;;;85.22;52.03;;;;;;;10.04;62.31;102058.19;4985919;28;119400;-76
2022/11/30 02:32:23;;;;;;;82.38;51.50;;;;;;;10.07;62.25;102062.06;4984450;28;119793;-76
2022/11/30 02:34:51;;;;;;;84.22;51.13;;;;;;;10.07;62.19;102056.56;4986881;28;119407;-76
2022/11/30 02:37:18;;;;;;;77.97;50.40;;;;;;;10.07;62.13;102056.56;4983444;28;119810;-77
2022/11/30 02:39:44;;;;;;;84.30;52.92;;;;;;;10.11;62.39;102060.03;4969010;28;119805;-76
2022/11/30 02:42:12;;;;;;;82.45;52.47;;;;;;;10.14;62.09;102061.94;4986784;28;121737;-76
2022/11/30 02:44:39;;;;;;;82.25;51.95;;;;;;;10.10;62.08;102050.25;4985808;28;119872;-77
2022/11/30 02:47:19;;;;;;;82.65;50.90;;;;;;;10.14;61.64;102048.22;4990699;28;119301;-76
2022/11/30 02:49:49;;;;;;;85.50;52.05;;;;;;;10.15;61.94;102060.75;4985654;28;119874;-77
2022/11/30 02:52:18;;;;;;;83.18;51.53;;;;;;;10.16;62.19;102062.31;4988656;28;120166;-76
2022/11/30 02:54:45;;;;;;;83.53;50.78;;;;;;;10.14;62.35;102054.50;4986905;28;119334;-76
2022/11/30 02:57:11;;;;;;;85.68;52.83;;;;;;;10.21;61.77;102066.59;4987251;28;119752;-77
2022/11/30 02:59:37;;;;;;;84.55;52.00;;;;;;;10.23;61.63;102070.47;4986068;28;119322;-76
2022/11/30 03:02:03;;;;;;;81.43;50.70;;;;;;;10.18;61.92;102051.72;4988436;28;119832;-76
2022/11/30 03:04:29;;;;;;;83.18;51.42;;;;;;;10.21;62.49;102048.19;4988493;28;119585;-76
2022/11/30 03:06:54;;;;;;;82.63;51.13;;;;;;;10.24;61.92;102060.28;4985994;28;119674;-75
2022/11/30 03:09:20;;;;;;;80.55;50.67;;;;;;;10.25;61.79;102064.59;4991799;28;119904;-76
2022/11/30 03:11:49;;;;;;;80.25;50.72;;;;;;;10.22;61.88;102068.94;4984616;28;119456;-76
2022/11/30 03:14:25;;;;;;;87.10;53.08;;;;;;;10.15;61.49;102058.00;4985217;28;120003;-76
2022/11/30 03:16:51;;;;;;;84.03;50.97;;;;;;;10.15;61.56;102069.75;4986384;28;119338;-76
2022/11/30 03:19:17;;;;;;;80.07;50.33;;;;;;;10.04;61.46;102063.66;4989002;28;119311;-77
2022/11/30 03:21:43;;;;;;;79.07;50.85;;;;;;;9.94;61.35;102061.06;4985756;28;119408;-77
2022/11/30 03:24:08;;;;;;;85.32;51.42;;;;;;;9.85;61.99;102061.56;4986679;28;119812;-76
2022/11/30 03:26:34;;;;;;;82.78;51.55;;;;;;;9.83;62.08;102064.72;4984929;28;119153;-76
2022/11/30 03:29:00;;;;;;;87.68;52.10;;;;;;;9.74;62.34;102048.00;4985739;28;121430;-77
2022/11/30 03:31:26;;;;;;;84.68;52.42;;;;;;;9.89;62.12;102073.25;4989389;28;119708;-75
2022/11/30 03:33:51;;;;;;;83.70;51.50;;;;;;;9.85;62.21;102062.34;4985750;28;119843;-75
2022/11/30 03:36:30;;;;;;;83.22;51.03;;;;;;;9.87;62.48;102059.19;4986418;28;119444;-76
2022/11/30 03:38:56;;;;;;;79.38;49.45;;;;;;;9.93;62.22;102062.22;4985713;28;119580;-76
2022/11/30 03:41:21;;;;;;;78.80;50.47;;;;;;;9.92;62.06;102066.16;4984963;28;122667;-75
2022/11/30 03:43:47;;;;;;;84.47;51.13;;;;;;;9.92;62.03;102072.41;4984910;28;119311;-76
2022/11/30 03:46:16;;;;;;;79.68;49.33;;;;;;;9.94;62.34;102069.28;4985553;28;119417;-76
2022/11/30 03:48:43;;;;;;;77.45;48.65;;;;;;;9.87;61.97;102059.19;4981684;28;121226;-75
2022/11/30 03:51:11;;;;;;;79.68;51.33;;;;;;;9.92;61.97;102069.69;4983256;28;119697;-77
2022/11/30 03:53:37;;;;;;;75.68;49.25;;;;;;;9.83;62.04;102061.97;4983918;28;119369;-75
2022/11/30 03:56:05;;;;;;;79.38;50.47;;;;;;;9.84;62.12;102062.75;4981576;28;120038;-76
2022/11/30 03:58:30;;;;;;;79.85;50.10;;;;;;;9.80;61.97;102076.50;4979254;28;120224;-76
2022/11/30 04:01:00;;;;;;;81.00;51.33;;;;;;;9.81;62.27;102078.06;4981813;28;121118;-75
2022/11/30 04:03:25;;;;;;;82.05;51.20;;;;;;;9.79;62.61;102074.94;4982642;28;119796;-77
2022/11/30 04:05:51;;;;;;;79.90;51.22;;;;;;;9.74;62.17;102086.38;4979347;28;119743;-76
2022/11/30 04:08:17;;;;;;;81.30;52.03;;;;;;;9.70;62.09;102082.91;4969671;28;119398;-75
2022/11/30 04:10:46;;;;;;;79.72;51.30;;;;;;;9.73;62.24;102095.00;4985563;28;119379;-76
2022/11/30 04:13:11;;;;;;;85.35;52.75;;;;;;;9.72;62.74;102085.22;4968493;28;119471;-76
2022/11/30 04:15:37;;;;;;;83.45;52.85;;;;;;;9.73;62.84;102087.56;4990362;28;119320;-75
2022/11/30 04:18:03;;;;;;;86.97;52.40;;;;;;;9.80;62.78;102089.44;4985838;28;119878;-76
2022/11/30 04:20:29;;;;;;;87.70;53.65;;;;;;;9.81;62.95;102094.50;4987008;28;120381;-76
2022/11/30 04:22:57;;;;;;;81.55;51.30;;;;;;;9.76;62.55;102092.22;4985089;28;119585;-76
2022/11/30 04:25:23;;;;;;;87.45;55.13;;;;;;;9.77;62.53;102101.22;4983560;28;119782;-76
2022/11/30 04:27:48;;;;;;;84.70;53.13;;;;;;;9.74;62.48;102093.81;4985224;28;119286;-76
2022/11/30 04:30:15;;;;;;;82.90;51.90;;;;;;;9.74;62.86;102110.25;4986938;28;119802;-76
2022/11/30 04:32:41;;;;;;;83.38;52.22;;;;;;;9.69;62.60;102103.25;4986335;28;119432;-76
2022/11/30 04:35:07;;;;;;;82.22;52.65;;;;;;;9.63;62.58;102102.16;4983626;28;122187;-76
2022/11/30 04:37:33;;;;;;;81.20;51.33;;;;;;;9.60;62.86;102099.44;4987141;28;119509;-76
2022/11/30 04:39:59;;;;;;;79.72;51.28;;;;;;;9.61;62.59;102096.31;4966780;28;119393;-75
2022/11/30 04:42:25;;;;;;;79.80;51.00;;;;;;;9.68;62.55;102107.16;4983945;28;119343;-77
2022/11/30 04:44:50;;;;;;;81.63;51.25;;;;;;;9.64;62.31;102100.97;4982214;28;119742;-75
2022/11/30 04:47:16;;;;;;;79.72;51.92;;;;;;;9.58;61.94;102097.13;4984074;28;120155;-76
2022/11/30 04:49:42;;;;;;;85.55;51.63;;;;;;;9.53;62.39;102094.84;4985945;28;119486;-75
2022/11/30 04:52:07;;;;;;;83.47;50.65;;;;;;;9.51;62.62;102089.78;4963699;28;121976;-76
2022/11/30 04:54:33;;;;;;;78.15;50.92;;;;;;;9.55;62.24;102097.94;4981091;28;119441;-76
2022/11/30 04:56:59;;;;;;;74.18;49.80;;;;;;;9.48;61.82;102106.25;4991058;28;119642;-77
2022/11/30 04:59:25;;;;;;;78.10;48.95;;;;;;;9.51;62.16;102113.66;4988270;28;119734;-77
2022/11/30 05:01:50;;;;;;;73.28;49.25;;;;;;;9.50;62.58;102115.59;4988080;28;119851;-77
2022/11/30 05:04:16;;;;;;;75.57;49.28;;;;;;;9.52;62.51;102115.97;4987074;28;119367;-77
2022/11/30 05:06:42;;;;;;;74.78;47.22;;;;;;;9.53;62.00;102125.75;4982891;28;119811;-75
2022/11/30 05:09:07;;;;;;;74.10;48.53;;;;;;;9.46;61.84;102117.63;4988676;28;119632;-76
2022/11/30 05:11:33;;;;;;;74.10;47.35;;;;;;;9.52;61.82;102128.91;4986854;28;119301;-75
2022/11/30 05:13:59;;;;;;;76.43;47.00;;;;;;;9.49;61.91;102126.97;4987362;27;120212;-76
2022/11/30 05:16:25;;;;;;;72.57;47.75;;;;;;;9.51;62.14;102127.34;4987346;28;119605;-75
2022/11/30 05:18:50;;;;;;;76.10;49.47;;;;;;;9.51;62.31;102125.38;4991800;28;119227;-77
2022/11/30 05:21:16;;;;;;;73.55;48.63;;;;;;;9.53;61.85;102120.28;4983991;28;119631;-77
2022/11/30 05:23:42;;;;;;;76.78;49.20;;;;;;;9.61;61.87;102129.19;4985580;28;119689;-76
2022/11/30 05:26:14;;;;;;;75.72;49.70;;;;;;;9.59;62.02;102126.06;4985491;28;122357;-76
2022/11/30 05:28:40;;;;;;;74.90;49.28;;;;;;;9.61;62.16;102123.69;4988154;28;119430;-76
2022/11/30 05:31:06;;;;;;;72.85;47.63;;;;;;;9.64;62.41;102122.88;4987698;28;119304;-75
2022/11/30 05:33:32;;;;;;;77.55;51.00;;;;;;;9.66;62.07;102126.00;4986587;28;119507;-75
2022/11/30 05:35:58;;;;;;;73.38;48.80;;;;;;;9.63;61.96;102110.38;4989134;28;120590;-76
2022/11/30 05:38:24;;;;;;;76.68;49.88;;;;;;;9.69;61.93;102125.16;4986327;28;121180;-77
2022/11/30 05:40:50;;;;;;;72.38;47.60;;;;;;;9.73;61.81;102125.94;4989241;28;120477;-76
2022/11/30 05:43:15;;;;;;;75.47;49.25;;;;;;;9.76;61.85;102127.06;4987788;28;119343;-77
2022/11/30 05:45:41;;;;;;;71.30;47.78;;;;;;;9.79;61.65;102131.72;4986436;28;121587;-75
2022/11/30 05:48:27;;;;;;;74.63;48.72;;;;;;;9.74;61.83;102135.69;4986223;28;119578;-76
2022/11/30 05:50:53;;;;;;;75.10;48.83;;;;;;;9.75;61.78;102136.47;4985891;28;119848;-76
2022/11/30 05:53:19;;;;;;;72.70;47.83;;;;;;;9.78;62.29;102141.13;4986678;28;120039;-75
2022/11/30 05:55:45;;;;;;;68.40;46.40;;;;;;;9.76;61.97;102141.53;4968784;28;119808;-78
2022/11/30 05:58:10;;;;;;;71.90;47.72;;;;;;;9.79;61.25;102140.72;4990399;28;119830;-78
2022/11/30 06:00:36;;;;;;;71.18;46.97;;;;;;;9.73;61.29;102134.16;4965636;28;120779;-78
2022/11/30 06:03:02;;;;;;;73.57;46.95;;;;;;;9.79;61.65;102153.66;4985027;28;119837;-78
2022/11/30 06:05:28;;;;;;;71.88;46.47;;;;;;;9.78;61.61;102146.63;4962395;28;119816;-78
2022/11/30 06:07:54;;;;;;;68.78;45.72;;;;;;;9.82;61.21;102155.56;4981954;28;119643;-78
2022/11/30 06:10:20;;;;;;;73.57;48.08;;;;;;;9.76;61.25;102149.78;4984361;28;119397;-78
2022/11/30 06:12:47;;;;;;;70.90;46.80;;;;;;;9.80;61.43;102153.25;4982991;28;119446;-77
2022/11/30 06:15:13;;;;;;;73.43;47.83;;;;;;;9.79;60.97;102173.59;4969215;28;119705;-78
2022/11/30 06:17:39;;;;;;;72.20;47.88;;;;;;;9.72;61.22;102157.25;4982856;28;119199;-78
2022/11/30 06:20:06;;;;;;;75.78;47.85;;;;;;;9.79;60.67;102168.13;4979653;28;120182;-78
2022/11/30 06:22:31;;;;;;;68.05;46.88;;;;;;;9.77;61.05;102173.25;4985901;28;119541;-78
2022/11/30 06:24:57;;;;;;;72.85;48.83;;;;;;;9.76;61.00;102173.66;4983605;28;119598;-78
2022/11/30 06:27:23;;;;;;;75.70;48.33;;;;;;;9.74;61.36;102170.53;4979192;28;119911;-78
2022/11/30 06:29:52;;;;;;;76.00;50.25;;;;;;;9.79;61.57;102172.84;4983101;28;119856;-79
2022/11/30 06:32:17;;;;;;;76.45;47.97;;;;;;;9.79;61.41;102170.88;4964442;28;119812;-77
2022/11/30 06:34:43;;;;;;;72.60;48.15;;;;;;;9.76;61.04;102171.69;4977431;28;119485;-78
2022/11/30 06:37:09;;;;;;;75.50;47.97;;;;;;;9.78;61.11;102176.75;4982967;28;119426;-77
2022/11/30 06:39:34;;;;;;;72.88;48.38;;;;;;;9.74;60.78;102179.53;4981233;28;120365;-77
2022/11/30 06:42:00;;;;;;;75.25;49.47;;;;;;;9.68;61.28;102172.16;4979840;28;119422;-79
2022/11/30 06:44:26;;;;;;;79.68;48.92;;;;;;;9.71;61.36;102176.84;4982079;28;119422;-78
2022/11/30 06:46:52;;;;;;;71.95;48.25;;;;;;;9.75;61.52;102177.59;4977909;28;119536;-78
2022/11/30 06:49:18;;;;;;;73.18;48.20;;;;;;;9.74;61.08;102174.06;4979813;28;119537;-78
2022/11/30 06:51:43;;;;;;;73.25;47.80;;;;;;;9.71;61.52;102163.16;4983044;28;119445;-79
2022/11/30 06:54:10;;;;;;;75.13;48.40;;;;;;;9.77;61.36;102175.22;4981410;28;119966;-78
2022/11/30 06:56:36;;;;;;;73.65;48.08;;;;;;;9.74;61.02;102171.31;4978049;28;120112;-78
2022/11/30 06:59:02;;;;;;;78.03;49.10;;;;;;;9.73;61.70;102169.00;4978811;28;121539;-78
2022/11/30 07:01:30;;;;;;;72.15;48.10;;;;;;;9.71;61.53;102163.16;4982326;28;119692;-78
2022/11/30 07:03:56;;;;;;;70.28;46.70;;;;;;;9.76;61.58;102160.72;4980082;28;121068;-77
2022/11/30 07:06:22;;;;;;;76.40;49.60;;;;;;;9.82;61.22;102181.00;4982115;28;121978;-78
2022/11/30 07:08:48;;;;;;;71.75;47.45;;;;;;;9.76;61.27;102185.41;4984427;28;119675;-77
2022/11/30 07:11:19;;;;;;;70.05;47.60;;;;;;;9.74;61.47;102181.50;4982233;28;120047;-78
2022/11/30 07:13:45;;;;;;;76.07;49.67;;;;;;;9.73;61.70;102185.44;4978845;28;119537;-79
2022/11/30 07:16:11;;;;;;;73.45;48.28;;;;;;;9.74;61.41;102190.50;4977831;28;119880;-78
2022/11/30 07:18:37;;;;;;;70.03;46.10;;;;;;;9.69;61.10;102185.44;4980420;28;122010;-78
2022/11/30 07:21:04;;;;;;;73.22;47.72;;;;;;;9.72;61.15;102192.88;4978756;28;119916;-77
2022/11/30 07:26:15;;;;;;;72.50;47.03;;;;;;;9.69;61.37;102190.94;4980803;28;119618;-78
2022/11/30 07:28:42;;;;;;;72.10;48.25;;;;;;;9.74;61.60;102195.22;4984107;28;119738;-78
2022/11/30 07:31:23;;;;;;;74.93;48.00;;;;;;;9.76;61.40;102188.13;4982170;28;119910;-78
2022/11/30 07:33:50;;;;;;;72.78;47.53;;;;;;;9.76;61.44;102193.63;4981381;28;119394;-77
2022/11/30 07:36:17;;;;;;;71.15;47.80;;;;;;;9.76;61.44;102196.34;4981058;28;120183;-79
2022/11/30 07:38:44;;;;;;;73.07;48.53;;;;;;;9.74;61.52;102189.72;4963762;28;119748;-77
2022/11/30 07:41:10;;;;;;;74.38;49.03;;;;;;;9.77;61.40;102200.66;4981987;28;119838;-78
2022/11/30 07:43:36;;;;;;;69.47;47.25;;;;;;;9.74;61.29;102197.94;4982112;27;119995;-77
2022/11/30 07:46:07;;;;;;;75.13;48.85;;;;;;;9.75;61.74;102194.81;4980043;28;119960;-79
2022/11/30 07:48:34;;;;;;;71.70;47.58;;;;;;;9.79;61.54;102202.97;4982799;28;120296;-78
2022/11/30 07:51:13;;;;;;;76.57;48.10;;;;;;;9.91;61.43;102204.41;4949306;28;119731;-77
2022/11/30 07:53:39;;;;;;;73.05;48.28;;;;;;;9.85;61.45;102204.84;4976812;28;120273;-79
2022/11/30 07:56:08;;;;;;;72.57;48.80;;;;;;;9.89;61.16;102215.78;4981801;28;120530;-78
2022/11/30 07:58:34;;;;;;;74.82;48.92;;;;;;;9.92;61.24;102214.97;4979584;28;120897;-78
2022/11/30 08:01:05;;;;;;;72.07;47.63;;;;;;;9.95;61.79;102213.38;4980856;28;119321;-79
2022/11/30 08:03:31;;;;;;;71.50;47.72;;;;;;;10.01;62.00;102204.31;4979883;28;119352;-77
2022/11/30 08:06:06;;;;;;;77.97;49.35;;;;;;;10.12;61.54;102226.88;4976865;28;120555;-78
2022/11/30 08:08:34;;;;;;;72.72;48.40;;;;;;;10.14;61.15;102220.97;4976421;28;119726;-78
2022/11/30 08:11:05;;;;;;;72.78;47.40;;;;;;;10.12;61.26;102228.84;4975036;28;121070;-77
2022/11/30 08:13:31;;;;;;;71.88;46.22;;;;;;;10.13;61.72;102231.19;4980893;28;122298;-78
2022/11/30 08:16:06;;;;;;;75.55;47.25;;;;;;;10.10;60.84;102229.25;4985064;28;120424;-78
2022/11/30 08:18:32;;;;;;;71.55;46.35;;;;;;;10.12;60.91;102232.38;4975005;28;120154;-78
2022/11/30 08:21:02;;;;;;;70.88;47.05;;;;;;;10.13;60.62;102235.88;4979338;28;119830;-78
2022/11/30 08:23:54;;;;;;;73.25;47.58;;;;;;;10.16;61.32;102230.34;4984510;28;120003;-78
2022/11/30 08:26:23;;;;;;;73.95;47.35;;;;;;;10.21;60.99;102237.41;4985914;28;122178;-78
2022/11/30 08:28:50;;;;;;;72.90;48.15;;;;;;;10.24;60.87;102238.53;4988033;28;119730;-77
2022/11/30 08:31:22;;;;;;;75.65;48.88;;;;;;;10.24;60.50;102244.81;4983848;28;119474;-77
2022/11/30 08:33:49;;;;;;;76.70;48.40;;;;;;;10.21;60.39;102236.63;4983571;28;120616;-77
2022/11/30 08:36:19;;;;;;;78.63;49.05;;;;;;;10.24;61.05;102241.28;4992208;28;119870;-77
2022/11/30 08:38:47;;;;;;;78.97;49.67;;;;;;;10.28;60.93;102251.03;4986755;28;119659;-76
2022/11/30 08:41:15;;;;;;;75.55;47.67;;;;;;;10.26;60.43;102247.13;4985608;28;119573;-77
2022/11/30 08:43:41;;;;;;;70.93;46.67;;;;;;;10.32;60.50;102248.22;4983271;28;119465;-76
2022/11/30 08:46:10;;;;;;;74.40;48.50;;;;;;;10.30;60.29;102251.38;4983669;28;119884;-77
2022/11/30 08:48:37;;;;;;;74.32;48.72;;;;;;;10.26;60.29;102253.41;4972867;28;119461;-76
2022/11/30 08:51:08;;;;;;;73.38;47.55;;;;;;;10.30;61.08;102261.59;4985386;28;119998;-77
2022/11/30 08:53:34;;;;;;;73.55;48.92;;;;;;;10.33;60.02;102261.53;4988018;28;119782;-76
2022/11/30 08:56:09;;;;;;;73.45;48.13;;;;;;;10.31;60.62;102252.16;4992687;27;119861;-76
2022/11/30 08:58:38;;;;;;;80.03;51.05;;;;;;;10.35;60.56;102263.88;4986066;28;120206;-77
2022/11/30 09:01:21;;;;;;;80.65;50.60;;;;;;;10.37;60.02;102267.75;4986613;28;119404;-77
2022/11/30 09:03:49;;;;;;;77.00;49.28;;;;;;;10.42;60.18;102272.81;4986663;28;119834;-76
2022/11/30 09:06:18;;;;;;;70.20;47.55;;;;;;;10.43;60.11;102279.84;4986743;28;120429;-77
2022/11/30 09:08:45;;;;;;;69.00;46.00;;;;;;;10.41;59.45;102284.97;4986065;28;119501;-76
2022/11/30 09:11:32;;;;;;;70.80;45.30;;;;;;;10.41;60.05;102284.19;4985666;28;120201;-77
2022/11/30 09:14:02;;;;;;;70.75;46.63;;;;;;;10.40;60.16;102277.13;4990051;28;119667;-76
2022/11/30 09:16:28;;;;;;;73.20;46.70;;;;;;;10.44;59.96;102283.38;4983383;28;119492;-76
2022/11/30 09:18:54;;;;;;;72.90;48.03;;;;;;;10.44;60.21;102289.63;4970928;28;119322;-77
2022/11/30 09:21:22;;;;;;;72.18;47.80;;;;;;;10.38;59.98;102285.75;4984253;28;119302;-77
2022/11/30 09:23:49;;;;;;;73.68;46.80;;;;;;;10.45;60.39;102279.44;4983421;28;119867;-77
2022/11/30 09:26:18;;;;;;;74.90;47.70;;;;;;;10.45;60.04;102288.44;4982003;28;119455;-77
2022/11/30 09:28:45;;;;;;;74.57;48.20;;;;;;;10.49;60.56;102291.16;4978159;28;119778;-76
2022/11/30 09:31:23;;;;;;;76.82;46.60;;;;;;;10.53;60.20;102288.34;4983020;28;120385;-75
2022/11/30 09:33:49;;;;;;;68.28;45.95;;;;;;;10.58;60.51;102288.66;4978891;28;119946;-76
2022/11/30 09:36:18;;;;;;;67.80;45.92;;;;;;;10.58;59.89;102296.13;4982865;28;120163;-76
2022/11/30 09:38:44;;;;;;;72.25;45.95;;;;;;;10.59;59.46;102305.91;4975344;28;120299;-77
2022/11/30 09:41:27;;;;;;;69.32;45.22;;;;;;;10.55;59.54;102311.44;4989528;28;119857;-76
2022/11/30 09:44:30;;;;;;;70.45;46.40;;;;;;;10.53;59.64;102299.31;4952986;28;123538;-76
2022/11/30 09:47:21;;;;;;;72.80;45.17;;;;;;;10.53;59.74;102297.34;4951323;28;119512;-77
2022/11/30 09:49:48;;;;;;;71.15;46.40;;;;;;;10.55;60.00;102300.47;4957012;28;119810;-77
2022/11/30 09:52:25;;;;;;;69.95;46.40;;;;;;;10.59;59.42;102303.16;4956233;28;119432;-76
2022/11/30 09:54:51;;;;;;;71.07;46.58;;;;;;;10.59;59.34;102295.72;4954377;28;120090;-77
2022/11/30 09:57:32;;;;;;;70.45;45.45;;;;;;;10.64;59.67;102302.72;4956827;28;120034;-77
2022/11/30 10:00:04;;;;;;;66.47;45.13;;;;;;;10.67;59.60;102305.44;4954774;28;119576;-77
2022/11/30 10:02:38;;;;;;;70.07;45.22;;;;;;;10.58;59.44;102288.66;4930435;28;120630;-76
2022/11/30 10:05:19;;;;;;;71.05;45.13;;;;;;;10.67;59.10;102293.69;4954684;28;119884;-77
2022/11/30 10:07:46;;;;;;;69.65;47.17;;;;;;;10.61;59.06;102298.03;4951369;28;120264;-77
2022/11/30 10:10:32;;;;;;;71.57;47.47;;;;;;;10.61;59.56;102289.81;4956445;28;119996;-77
2022/11/30 10:13:17;;;;;;;66.20;45.17;;;;;;;10.61;59.11;102285.09;4965195;28;119538;-78
2022/11/30 10:15:53;;;;;;;75.85;48.28;;;;;;;10.54;59.05;102276.97;4959111;28;119392;-78
2022/11/30 10:18:37;;;;;;;73.72;47.03;;;;;;;10.60;59.23;102286.28;4959881;28;119735;-77
2022/11/30 10:21:14;;;;;;;72.88;46.97;;;;;;;10.64;59.23;102280.75;4956003;28;119739;-81
2022/11/30 10:23:44;;;;;;;70.13;45.33;;;;;;;10.70;59.38;102282.66;4957274;28;119707;-80
2022/11/30 10:26:25;;;;;;;73.28;46.83;;;;;;;10.69;58.61;102285.81;4933261;28;119397;-81
2022/11/30 10:28:53;;;;;;;70.50;46.58;;;;;;;10.64;58.94;102291.72;4960387;28;119589;-77
2022/11/30 10:31:31;;;;;;;71.32;46.45;;;;;;;10.52;59.00;102276.59;4955967;28;119934;-76
2022/11/30 10:34:11;;;;;;;69.65;45.70;;;;;;;10.59;59.21;102283.97;4954168;28;119718;-76
2022/11/30 10:36:41;;;;;;;70.72;46.00;;;;;;;10.63;59.63;102281.94;4956523;28;119585;-77
2022/11/30 10:39:26;;;;;;;70.40;45.70;;;;;;;10.76;59.58;102282.97;4960436;28;119367;-78
2022/11/30 10:42:03;;;;;;;77.85;48.53;;;;;;;10.83;58.94;102288.34;4955444;28;119510;-78
2022/11/30 10:44:39;;;;;;;74.18;47.25;;;;;;;10.69;58.01;102274.81;4954061;28;119325;-77
2022/11/30 10:47:19;;;;;;;70.90;46.25;;;;;;;10.75;58.94;102284.94;4956901;28;119836;-77
2022/11/30 10:49:48;;;;;;;70.90;46.13;;;;;;;10.79;58.82;102282.13;4954882;28;119543;-76
2022/11/30 10:52:20;;;;;;;73.35;45.83;;;;;;;10.82;58.81;102278.56;4959740;28;119347;-77
2022/11/30 10:54:54;;;;;;;67.22;44.85;;;;;;;10.82;58.55;102281.31;4955271;28;119632;-76
2022/11/30 10:57:23;;;;;;;69.35;45.85;;;;;;;10.81;58.51;102279.75;4960347;28;119880;-76
2022/11/30 10:59:52;;;;;;;71.57;46.22;;;;;;;10.81;58.18;102282.50;4960917;28;119511;-76
2022/11/30 11:02:37;;;;;;;67.90;45.03;;;;;;;10.80;57.93;102280.94;4957145;28;119399;-77
2022/11/30 11:05:22;;;;;;;66.95;44.00;;;;;;;10.80;58.30;102283.69;4939423;28;120633;-77
2022/11/30 11:08:01;;;;;;;69.63;45.75;;;;;;;10.78;58.11;102286.06;4961088;28;119750;-77
2022/11/30 11:10:41;;;;;;;65.82;43.53;;;;;;;10.80;58.81;102283.69;4960930;28;119241;-77
2022/11/30 11:13:16;;;;;;;68.60;43.83;;;;;;;10.81;58.80;102279.75;4966118;28;120776;-77
2022/11/30 11:15:58;;;;;;;67.80;44.67;;;;;;;10.87;58.81;102283.56;4958072;28;119163;-77
2022/11/30 11:18:27;;;;;;;67.75;44.25;;;;;;;10.84;58.46;102280.88;4957224;28;119715;-77